createdAt,value
2018-05-26T00:01:17.470Z,99767
2018-05-26T00:03:48.362Z,99766
2018-05-26T00:06:18.561Z,99767
2018-05-26T00:08:49.895Z,99761
2018-05-26T00:11:20.269Z,99758
2018-05-26T00:13:50.606Z,99762
2018-05-26T00:16:20.944Z,99764
2018-05-26T00:18:51.279Z,99761
2018-05-26T00:21:21.464Z,99759
2018-05-26T00:23:51.501Z,99760
2018-05-26T00:26:21.672Z,99758
2018-05-26T00:28:52.386Z,99759
2018-05-26T00:31:22.477Z,99759
2018-05-26T00:33:52.568Z,99762
2018-05-26T00:36:22.950Z,99757
2018-05-26T00:38:53.039Z,99759
2018-05-26T00:41:23.114Z,99756
2018-05-26T00:43:53.391Z,99758
2018-05-26T00:46:23.395Z,99762
2018-05-26T00:48:53.652Z,99762
2018-05-26T00:51:23.835Z,99766
2018-05-26T00:53:54.031Z,99759
2018-05-26T00:56:24.335Z,99760
2018-05-26T00:58:54.685Z,99763
2018-05-26T01:01:24.829Z,99774
2018-05-26T01:03:54.976Z,99776
2018-05-26T01:06:25.364Z,99774
2018-05-26T01:08:55.838Z,99770
2018-05-26T01:11:26.236Z,99765
2018-05-26T01:13:56.064Z,99767
2018-05-26T01:16:26.548Z,99766
2018-05-26T01:18:56.897Z,99771
2018-05-26T01:21:26.649Z,99767
2018-05-26T01:23:56.822Z,99762
2018-05-26T01:26:27.921Z,99770
2018-05-26T01:28:57.713Z,99767
2018-05-26T01:31:28.498Z,99764
2018-05-26T01:33:58.777Z,99753
2018-05-26T01:36:29.198Z,99759
2018-05-26T01:38:59.551Z,99756
2018-05-26T01:41:29.685Z,99756
2018-05-26T01:43:59.527Z,99760
2018-05-26T01:46:29.973Z,99763
2018-05-26T01:49:00.375Z,99765
2018-05-26T01:51:30.637Z,99766
2018-05-26T01:54:00.949Z,99763
2018-05-26T01:56:31.367Z,99762
2018-05-26T01:59:01.533Z,99765
2018-05-26T02:01:32.407Z,99764
2018-05-26T02:04:02.929Z,99761
2018-05-26T02:06:33.239Z,99761
2018-05-26T02:09:03.675Z,99761
2018-05-26T02:11:34.018Z,99759
2018-05-26T02:14:04.347Z,99765
2018-05-26T02:16:35.443Z,99763
2018-05-26T02:19:06.097Z,99768
2018-05-26T02:21:36.575Z,99767
2018-05-26T02:24:06.837Z,99768
2018-05-26T02:26:36.690Z,99773
2018-05-26T02:29:06.599Z,99779
2018-05-26T02:31:37.774Z,99780
2018-05-26T02:34:08.203Z,99780
2018-05-26T02:36:37.954Z,99780
2018-05-26T02:39:08.753Z,99784
2018-05-26T02:41:39.048Z,99784
2018-05-26T02:44:09.331Z,99785
2018-05-26T02:46:39.718Z,99786
2018-05-26T02:49:10.196Z,99786
2018-05-26T02:51:40.225Z,99788
2018-05-26T02:54:10.639Z,99785
2018-05-26T02:56:41.072Z,99793
2018-05-26T02:59:11.289Z,99789
2018-05-26T03:01:41.602Z,99792
2018-05-26T03:04:11.724Z,99798
2018-05-26T03:06:47.537Z,99801
2018-05-26T03:09:23.751Z,99802
2018-05-26T03:11:59.943Z,99806
2018-05-26T03:14:36.196Z,99817
2018-05-26T03:17:07.235Z,99821
2018-05-26T03:19:37.658Z,99820
2018-05-26T03:22:07.889Z,99815
2018-05-26T03:24:38.311Z,99823
2018-05-26T03:27:08.033Z,99825
2018-05-26T03:29:37.852Z,99830
2018-05-26T03:32:07.627Z,99831
2018-05-26T03:34:37.420Z,99838
2018-05-26T03:37:07.184Z,99834
2018-05-26T03:39:37.011Z,99844
2018-05-26T03:42:06.803Z,99841
2018-05-26T03:44:36.561Z,99842
2018-05-26T03:47:06.331Z,99845
2018-05-26T03:49:36.049Z,99845
2018-05-26T03:52:05.816Z,99842
2018-05-26T03:54:47.279Z,99839
2018-05-26T03:57:28.815Z,99830
2018-05-26T04:00:14.482Z,99833
2018-05-26T04:02:44.213Z,99835
2018-05-26T04:05:13.980Z,99842
2018-05-26T04:07:43.732Z,99844
2018-05-26T04:10:13.439Z,99844
2018-05-26T04:12:43.194Z,99839
2018-05-26T04:15:12.925Z,99836
2018-05-26T04:17:42.683Z,99835
2018-05-26T04:20:12.463Z,99838
2018-05-26T04:22:42.183Z,99837
2018-05-26T04:25:11.957Z,99842
2018-05-26T04:27:41.788Z,99850
2018-05-26T04:30:11.517Z,99847
2018-05-26T04:32:41.282Z,99852
2018-05-26T04:35:11.022Z,99851
2018-05-26T04:37:40.768Z,99850
2018-05-26T04:40:10.554Z,99850
2018-05-26T04:42:40.324Z,99854
2018-05-26T04:45:10.078Z,99854
2018-05-26T04:47:39.802Z,99862
2018-05-26T04:50:09.550Z,99851
2018-05-26T04:52:39.313Z,99860
2018-05-26T04:55:09.044Z,99864
2018-05-26T04:57:38.739Z,99863
2018-05-26T05:00:08.509Z,99866
2018-05-26T05:02:38.272Z,99862
2018-05-26T05:05:08.087Z,99858
2018-05-26T05:07:37.815Z,99863
2018-05-26T05:10:07.607Z,99864
2018-05-26T05:12:37.360Z,99866
2018-05-26T05:15:07.095Z,99871
2018-05-26T05:17:36.831Z,99876
2018-05-26T05:20:06.617Z,99873
2018-05-26T05:22:36.344Z,99874
2018-05-26T05:25:06.103Z,99871
2018-05-26T05:27:35.814Z,99866
2018-05-26T05:30:05.637Z,99870
2018-05-26T05:32:35.438Z,99873
2018-05-26T05:35:05.165Z,99872
2018-05-26T05:37:34.927Z,99871
2018-05-26T05:40:04.643Z,99874
2018-05-26T05:42:34.379Z,99867
2018-05-26T05:45:04.141Z,99873
2018-05-26T05:47:33.835Z,99879
2018-05-26T05:50:03.580Z,99880
2018-05-26T05:52:33.326Z,99873
2018-05-26T05:55:03.098Z,99885
2018-05-26T05:57:32.891Z,99883
2018-05-26T06:00:02.622Z,99878
2018-05-26T06:02:32.364Z,99877
2018-05-26T06:05:02.154Z,99876
2018-05-26T06:07:31.902Z,99873
2018-05-26T06:10:01.623Z,99880
2018-05-26T06:12:31.389Z,99884
2018-05-26T06:15:01.126Z,99881
2018-05-26T06:17:30.864Z,99882
2018-05-26T06:20:00.606Z,99881
2018-05-26T06:22:30.320Z,99887
2018-05-26T06:25:00.089Z,99880
2018-05-26T06:27:29.777Z,99877
2018-05-26T06:29:59.450Z,99880
2018-05-26T06:32:29.205Z,99890
2018-05-26T06:34:58.912Z,99892
2018-05-26T06:37:28.594Z,99888
2018-05-26T06:39:58.343Z,99887
2018-05-26T06:42:28.033Z,99889
2018-05-26T06:44:57.728Z,99885
2018-05-26T06:47:27.470Z,99874
2018-05-26T06:49:57.198Z,99868
2018-05-26T06:52:26.976Z,99871
2018-05-26T06:54:56.670Z,99872
2018-05-26T06:57:26.372Z,99871
2018-05-26T06:59:56.167Z,99871
2018-05-26T07:02:25.869Z,99875
2018-05-26T07:04:55.558Z,99874
2018-05-26T07:07:25.330Z,99878
2018-05-26T07:09:55.059Z,99879
2018-05-26T07:12:24.774Z,99877
2018-05-26T07:14:54.499Z,99876
2018-05-26T07:17:24.201Z,99874
2018-05-26T07:19:53.994Z,99869
2018-05-26T07:22:23.685Z,99871
2018-05-26T07:24:53.438Z,99868
2018-05-26T07:27:23.191Z,99869
2018-05-26T07:29:52.929Z,99869
2018-05-26T07:32:22.624Z,99873
2018-05-26T07:34:52.378Z,99869
2018-05-26T07:37:22.073Z,99862
2018-05-26T07:39:51.798Z,99867
2018-05-26T07:42:21.499Z,99872
2018-05-26T07:44:51.195Z,99870
2018-05-26T07:47:20.947Z,99872
2018-05-26T07:49:50.698Z,99872
2018-05-26T07:52:20.389Z,99865
2018-05-26T07:54:50.156Z,99864
2018-05-26T07:57:19.858Z,99860
2018-05-26T07:59:49.569Z,99856
2018-05-26T08:02:19.311Z,99856
2018-05-26T08:04:48.997Z,99857
2018-05-26T08:07:18.714Z,99855
2018-05-26T08:09:48.383Z,99853
2018-05-26T08:12:18.083Z,99851
2018-05-26T08:14:47.816Z,99847
2018-05-26T08:17:17.590Z,99853
2018-05-26T08:19:47.240Z,99859
2018-05-26T08:22:17.090Z,99858
2018-05-26T08:24:46.821Z,99857
2018-05-26T08:27:16.591Z,99862
2018-05-26T08:29:46.316Z,99858
2018-05-26T08:32:16.026Z,99859
2018-05-26T08:34:45.739Z,99857
2018-05-26T08:37:15.436Z,99852
2018-05-26T08:39:45.146Z,99860
2018-05-26T08:42:14.886Z,99863
2018-05-26T08:44:44.565Z,99864
2018-05-26T08:47:14.255Z,99857
2018-05-26T08:49:44.007Z,99864
2018-05-26T08:52:13.815Z,99858
2018-05-26T08:54:43.630Z,99854
2018-05-26T08:57:13.431Z,99855
2018-05-26T08:59:43.117Z,99846
2018-05-26T09:02:12.864Z,99844
2018-05-26T09:04:42.622Z,99842
2018-05-26T09:07:12.314Z,99842
2018-05-26T09:09:42.097Z,99838
2018-05-26T09:12:11.793Z,99840
2018-05-26T09:14:41.528Z,99834
2018-05-26T09:17:11.225Z,99825
2018-05-26T09:19:40.975Z,99819
2018-05-26T09:22:10.720Z,99820
2018-05-26T09:24:40.460Z,99808
2018-05-26T09:27:10.178Z,99809
2018-05-26T09:29:39.931Z,99800
2018-05-26T09:32:09.648Z,99795
2018-05-26T09:34:39.373Z,99798
2018-05-26T09:37:09.063Z,99798
2018-05-26T09:39:38.736Z,99789
2018-05-26T09:42:08.462Z,99785
2018-05-26T09:44:38.169Z,99774
2018-05-26T09:47:07.851Z,99776
2018-05-26T09:49:37.578Z,99771
2018-05-26T09:52:07.272Z,99779
2018-05-26T09:54:37.076Z,99782
2018-05-26T09:57:06.837Z,99786
2018-05-26T09:59:36.534Z,99797
2018-05-26T10:02:06.254Z,99815
2018-05-26T10:04:35.917Z,99827
2018-05-26T10:07:05.607Z,99826
2018-05-26T10:09:35.342Z,99830
2018-05-26T10:12:05.023Z,99823
2018-05-26T10:14:34.700Z,99822
2018-05-26T10:17:04.433Z,99818
2018-05-26T10:19:34.140Z,99811
2018-05-26T10:22:03.833Z,99821
2018-05-26T10:24:33.555Z,99817
2018-05-26T10:27:03.242Z,99825
2018-05-26T10:29:32.959Z,99832
2018-05-26T10:32:02.715Z,99836
2018-05-26T10:34:32.427Z,99841
2018-05-26T10:37:02.184Z,99843
2018-05-26T10:39:31.875Z,99841
2018-05-26T10:42:01.613Z,99834
2018-05-26T10:44:31.344Z,99827
2018-05-26T10:47:01.143Z,99830
2018-05-26T10:49:30.860Z,99827
2018-05-26T10:52:00.601Z,99834
2018-05-26T10:54:30.312Z,99840
2018-05-26T10:57:00.023Z,99839
2018-05-26T10:59:29.732Z,99842
2018-05-26T11:01:59.418Z,99847
2018-05-26T11:04:30.921Z,99848
2018-05-26T11:07:00.589Z,99847
2018-05-26T11:09:30.373Z,99853
2018-05-26T11:12:00.119Z,99859
2018-05-26T11:14:29.829Z,99857
2018-05-26T11:16:59.636Z,99847
2018-05-26T11:19:29.326Z,99851
2018-05-26T11:21:59.061Z,99849
2018-05-26T11:24:28.846Z,99857
2018-05-26T11:26:58.582Z,99852
2018-05-26T11:29:28.319Z,99841
2018-05-26T11:31:58.057Z,99840
2018-05-26T11:34:27.771Z,99838
2018-05-26T11:36:57.511Z,99830
2018-05-26T11:39:27.213Z,99832
2018-05-26T11:41:56.946Z,99836
2018-05-26T11:44:26.662Z,99829
2018-05-26T11:46:56.352Z,99822
2018-05-26T11:49:26.114Z,99820
2018-05-26T11:51:55.861Z,99819
2018-05-26T11:54:25.547Z,99814
2018-05-26T11:56:55.252Z,99810
2018-05-26T11:59:24.932Z,99807
2018-05-26T12:01:54.651Z,99812
2018-05-26T12:04:24.391Z,99808
2018-05-26T12:06:54.087Z,99809
2018-05-26T12:09:23.797Z,99808
2018-05-26T12:11:53.481Z,99804
2018-05-26T12:14:23.203Z,99802
2018-05-26T12:16:52.937Z,99798
2018-05-26T12:19:22.638Z,99806
2018-05-26T12:21:52.344Z,99811
2018-05-26T12:24:22.060Z,99806
2018-05-26T12:26:51.809Z,99797
2018-05-26T12:29:21.499Z,99805
2018-05-26T12:31:51.296Z,99801
2018-05-26T12:34:21.004Z,99804
2018-05-26T12:36:50.697Z,99813
2018-05-26T12:39:20.377Z,99792
2018-05-26T12:41:50.082Z,99796
2018-05-26T12:44:19.842Z,99796
2018-05-26T12:46:49.624Z,99800
2018-05-26T12:49:19.312Z,99804
2018-05-26T12:51:49.085Z,99795
2018-05-26T12:54:18.797Z,99799
2018-05-26T12:56:48.516Z,99792
2018-05-26T12:59:18.222Z,99789
2018-05-26T13:01:47.902Z,99791
2018-05-26T13:04:17.630Z,99788
2018-05-26T13:06:47.399Z,99795
2018-05-26T13:09:17.204Z,99791
2018-05-26T13:11:46.932Z,99782
2018-05-26T13:14:16.615Z,99798
2018-05-26T13:16:46.379Z,99799
2018-05-26T13:19:16.122Z,99787
2018-05-26T13:21:45.890Z,99788
2018-05-26T13:24:15.649Z,99784
2018-05-26T13:26:45.391Z,99778
2018-05-26T13:29:15.195Z,99776
2018-05-26T13:31:44.965Z,99774
2018-05-26T13:34:14.665Z,99770
2018-05-26T13:36:44.409Z,99769
2018-05-26T13:39:14.111Z,99767
2018-05-26T13:41:43.830Z,99765
2018-05-26T13:44:13.600Z,99758
2018-05-26T13:46:43.313Z,99762
2018-05-26T13:49:13.058Z,99755
2018-05-26T13:51:42.862Z,99748
2018-05-26T13:54:12.639Z,99738
2018-05-26T13:56:42.441Z,99740
2018-05-26T13:59:12.246Z,99733
2018-05-26T14:01:42.002Z,99734
2018-05-26T14:04:11.814Z,99729
2018-05-26T14:06:41.523Z,99726
2018-05-26T14:09:11.265Z,99732
2018-05-26T14:11:41.038Z,99739
2018-05-26T14:14:10.798Z,99732
2018-05-26T14:16:40.614Z,99743
2018-05-26T14:19:10.395Z,99742
2018-05-26T14:21:40.116Z,99742
2018-05-26T14:24:09.862Z,99735
2018-05-26T14:26:39.646Z,99739
2018-05-26T14:29:09.379Z,99739
2018-05-26T14:31:39.111Z,99735
2018-05-26T14:34:08.853Z,99731
2018-05-26T14:36:38.641Z,99729
2018-05-26T14:39:08.385Z,99727
2018-05-26T14:41:38.199Z,99720
2018-05-26T14:44:07.913Z,99725
2018-05-26T14:46:37.621Z,99726
2018-05-26T14:49:07.362Z,99716
2018-05-26T14:51:37.088Z,99708
2018-05-26T14:54:06.798Z,99712
2018-05-26T14:56:36.592Z,99714
2018-05-26T14:59:06.326Z,99713
2018-05-26T15:01:36.083Z,99714
2018-05-26T15:04:05.801Z,99714
2018-05-26T15:06:35.534Z,99708
2018-05-26T15:09:06.096Z,99710
2018-05-26T15:11:35.814Z,99707
2018-05-26T15:14:05.587Z,99703
2018-05-26T15:16:35.347Z,99700
2018-05-26T15:19:05.205Z,99692
2018-05-26T15:21:35.018Z,99698
2018-05-26T15:24:04.738Z,99700
2018-05-26T15:26:34.530Z,99703
2018-05-26T15:29:04.349Z,99704
2018-05-26T15:31:34.071Z,99703
2018-05-26T15:34:03.778Z,99700
2018-05-26T15:36:33.497Z,99694
2018-05-26T15:39:03.312Z,99696
2018-05-26T15:41:33.055Z,99690
2018-05-26T15:44:02.776Z,99689
2018-05-26T15:46:32.505Z,99684
2018-05-26T15:49:02.321Z,99687
2018-05-26T15:51:32.082Z,99686
2018-05-26T15:54:01.822Z,99690
2018-05-26T15:56:31.550Z,99699
2018-05-26T15:59:01.278Z,99703
2018-05-26T16:01:31.080Z,99709
2018-05-26T16:04:00.792Z,99717
2018-05-26T16:06:30.516Z,99717
2018-05-26T16:09:00.288Z,99717
2018-05-26T16:11:30.015Z,99720
2018-05-26T16:13:59.813Z,99724
2018-05-26T16:16:29.533Z,99733
2018-05-26T16:18:59.315Z,99741
2018-05-26T16:21:29.143Z,99739
2018-05-26T16:23:58.849Z,99744
2018-05-26T16:26:28.585Z,99742
2018-05-26T16:28:58.379Z,99743
2018-05-26T16:31:28.104Z,99748
2018-05-26T16:33:57.915Z,99752
2018-05-26T16:36:27.722Z,99756
2018-05-26T16:38:57.444Z,99764
2018-05-26T16:41:27.201Z,99766
2018-05-26T16:43:56.976Z,99764
2018-05-26T16:46:26.773Z,99764
2018-05-26T16:48:56.478Z,99771
2018-05-26T16:51:26.203Z,99777
2018-05-26T16:53:55.953Z,99786
2018-05-26T16:56:25.684Z,99786
2018-05-26T16:58:55.381Z,99796
2018-05-26T17:01:25.169Z,99825
2018-05-26T17:03:54.903Z,99830
2018-05-26T17:06:24.683Z,99829
2018-05-26T17:08:54.403Z,99831
2018-05-26T17:11:24.147Z,99843
2018-05-26T17:13:53.914Z,99838
2018-05-26T17:16:23.608Z,99858
2018-05-26T17:18:53.329Z,99861
2018-05-26T17:21:23.083Z,99864
2018-05-26T17:23:52.795Z,99866
2018-05-26T17:26:22.602Z,99871
2018-05-26T17:28:52.319Z,99868
2018-05-26T17:31:22.039Z,99863
2018-05-26T17:33:51.783Z,99878
2018-05-26T17:36:21.494Z,99888
2018-05-26T17:38:51.187Z,99888
2018-05-26T17:41:21.252Z,99893
2018-05-26T17:43:50.953Z,99891
2018-05-26T17:46:20.698Z,99885
2018-05-26T17:48:50.405Z,99893
2018-05-26T17:51:20.154Z,99903
2018-05-26T17:53:49.929Z,99913
2018-05-26T17:56:19.685Z,99907
2018-05-26T17:58:49.452Z,99907
2018-05-26T18:01:19.161Z,99913
2018-05-26T18:03:48.883Z,99915
2018-05-26T18:06:18.636Z,99910
2018-05-26T18:08:48.336Z,99908
2018-05-26T18:11:18.122Z,99910
2018-05-26T18:13:47.886Z,99907
2018-05-26T18:16:17.624Z,99913
2018-05-26T18:18:47.384Z,99918
2018-05-26T18:21:17.129Z,99920
2018-05-26T18:23:46.826Z,99920
2018-05-26T18:26:16.676Z,99919
2018-05-26T18:28:46.382Z,99926
2018-05-26T18:31:16.089Z,99934
2018-05-26T18:33:45.956Z,99931
2018-05-26T18:36:15.669Z,99929
2018-05-26T18:38:45.439Z,99933
2018-05-26T18:41:15.255Z,99939
2018-05-26T18:43:44.996Z,99941
2018-05-26T18:46:14.747Z,99947
2018-05-26T18:48:44.463Z,99950
2018-05-26T18:51:14.252Z,99955
2018-05-26T18:53:43.969Z,99960
2018-05-26T18:56:13.710Z,99960
2018-05-26T18:58:43.537Z,99960
2018-05-26T19:01:13.244Z,99965
2018-05-26T19:03:43.004Z,99957
2018-05-26T19:06:12.799Z,99961
2018-05-26T19:08:42.536Z,99966
2018-05-26T19:11:12.302Z,99970
2018-05-26T19:13:42.019Z,99970
2018-05-26T19:16:11.773Z,99976
2018-05-26T19:18:41.579Z,99983
2018-05-26T19:21:11.332Z,99989
2018-05-26T19:23:41.533Z,99995
2018-05-26T19:26:11.269Z,100000
2018-05-26T19:28:41.000Z,99996
2018-05-26T19:31:10.796Z,100001
2018-05-26T19:33:40.499Z,100021
2018-05-26T19:36:10.277Z,100021
2018-05-26T19:38:40.924Z,100027
2018-05-26T19:41:10.714Z,100036
2018-05-26T19:43:40.430Z,100031
2018-05-26T19:46:10.217Z,100026
2018-05-26T19:48:40.212Z,100027
2018-05-26T19:51:09.985Z,100034
2018-05-26T19:53:39.786Z,100034
2018-05-26T19:56:09.549Z,100030
2018-05-26T19:58:39.355Z,100016
2018-05-26T20:01:09.152Z,100008
2018-05-26T20:03:39.312Z,100005
2018-05-26T20:06:10.428Z,100004
2018-05-26T20:08:41.798Z,100004
2018-05-26T20:11:13.015Z,100005
2018-05-26T20:13:44.137Z,100011
2018-05-26T20:16:14.443Z,100017
2018-05-26T20:18:44.885Z,100009
2018-05-26T20:21:15.988Z,100010
2018-05-26T20:23:47.460Z,100023
2018-05-26T20:26:19.334Z,100027
2018-05-26T20:28:51.100Z,100035
2018-05-26T20:31:21.950Z,100045
2018-05-26T20:33:52.697Z,100038
2018-05-26T20:36:23.255Z,100034
2018-05-26T20:38:54.831Z,100026
2018-05-26T20:41:25.791Z,100029
2018-05-26T20:43:55.701Z,100042
2018-05-26T20:46:26.353Z,100044
2018-05-26T20:48:56.404Z,100046
2018-05-26T20:51:26.463Z,100041
2018-05-26T20:53:57.234Z,100039
2018-05-26T20:56:29.431Z,100039
2018-05-26T20:58:59.745Z,100037
2018-05-26T21:01:30.473Z,100036
2018-05-26T21:04:01.208Z,100037
2018-05-26T21:06:31.345Z,100042
2018-05-26T21:09:01.492Z,100069
2018-05-26T21:11:31.702Z,100083
2018-05-26T21:14:01.785Z,100080
2018-05-26T21:16:31.920Z,100068
2018-05-26T21:19:02.059Z,100051
2018-05-26T21:21:32.322Z,100036
2018-05-26T21:24:02.815Z,100023
2018-05-26T21:26:33.870Z,100016
2018-05-26T21:29:04.605Z,100026
2018-05-26T21:31:35.308Z,100037
2018-05-26T21:34:05.321Z,100033
2018-05-26T21:36:35.553Z,100028
2018-05-26T21:39:06.719Z,100026
2018-05-26T21:41:37.215Z,100038
2018-05-26T21:44:07.805Z,100035
2018-05-26T21:46:38.337Z,100038
2018-05-26T21:49:08.730Z,100037
2018-05-26T21:51:38.554Z,100044
2018-05-26T21:54:08.758Z,100052
2018-05-26T21:56:38.965Z,100051
2018-05-26T21:59:09.891Z,100042
2018-05-26T22:01:40.749Z,100038
2018-05-26T22:04:11.548Z,100036
2018-05-26T22:06:41.695Z,100037
2018-05-26T22:09:12.060Z,100030
2018-05-26T22:11:42.408Z,100026
2018-05-26T22:14:12.983Z,100027
2018-05-26T22:16:43.493Z,100026
2018-05-26T22:19:14.018Z,100028
2018-05-26T22:21:44.531Z,100037
2018-05-26T22:24:15.081Z,100031
2018-05-26T22:26:45.536Z,100027
2018-05-26T22:29:16.069Z,100026
2018-05-26T22:31:46.684Z,100020
2018-05-26T22:34:16.687Z,100025
2018-05-26T22:36:47.014Z,100033
2018-05-26T22:39:17.879Z,100029
2018-05-26T22:41:48.407Z,100028
2018-05-26T22:44:19.014Z,100025
2018-05-26T22:46:49.140Z,100028
2018-05-26T22:49:19.687Z,100035
2018-05-26T22:51:50.103Z,100042
2018-05-26T22:54:20.855Z,100049
2018-05-26T22:56:50.785Z,100049
2018-05-26T22:59:21.173Z,100051
2018-05-26T23:01:51.578Z,100046
2018-05-26T23:04:22.021Z,100044
2018-05-26T23:06:51.792Z,100036
2018-05-26T23:09:21.924Z,100034
2018-05-26T23:11:52.332Z,100034
2018-05-26T23:14:22.857Z,100025
2018-05-26T23:16:53.375Z,100025
2018-05-26T23:19:23.874Z,100031
2018-05-26T23:21:54.171Z,100025
2018-05-26T23:24:24.037Z,100026
2018-05-26T23:26:54.535Z,100019
2018-05-26T23:29:24.886Z,100019
2018-05-26T23:31:55.237Z,100025
2018-05-26T23:34:25.390Z,100018
2018-05-26T23:36:55.801Z,100012
2018-05-26T23:39:25.607Z,100006
2018-05-26T23:41:56.310Z,100002
2018-05-26T23:44:26.643Z,100001
2018-05-26T23:46:56.424Z,100003
2018-05-26T23:49:27.146Z,100010
2018-05-26T23:51:57.584Z,100004
2018-05-26T23:54:28.365Z,99995
2018-05-26T23:56:58.848Z,99999
2018-05-26T23:59:28.662Z,99998
